createdAt,value
2023-03-05T00:01:24.814Z,1.81
2023-03-05T00:03:54.788Z,1.82
2023-03-05T00:06:25.833Z,1.77
2023-03-05T00:08:53.572Z,1.71
2023-03-05T00:11:21.762Z,1.68
2023-03-05T00:13:52.479Z,1.68
2023-03-05T00:16:20.478Z,1.59
2023-03-05T00:18:47.934Z,1.59
2023-03-05T00:21:28.003Z,1.63
2023-03-05T00:23:56.398Z,1.62
2023-03-05T00:26:26.018Z,1.58
2023-03-05T00:28:54.377Z,1.63
2023-03-05T00:31:24.910Z,1.72
2023-03-05T00:33:54.935Z,1.70
2023-03-05T00:36:24.581Z,1.60
2023-03-05T00:38:52.593Z,1.68
2023-03-05T00:41:19.699Z,1.65
2023-03-05T00:43:48.036Z,1.65
2023-03-05T00:46:15.636Z,1.65
2023-03-05T00:48:42.639Z,1.58
2023-03-05T00:51:10.392Z,1.59
2023-03-05T00:53:37.380Z,1.61
2023-03-05T00:56:05.321Z,1.60
2023-03-05T00:58:32.273Z,1.52
2023-03-05T01:01:01.502Z,1.58
2023-03-05T01:03:29.940Z,1.53
2023-03-05T01:05:57.651Z,1.44
2023-03-05T01:08:25.683Z,1.51
2023-03-05T01:10:53.041Z,1.42
2023-03-05T01:13:20.156Z,1.41
2023-03-05T01:15:48.760Z,1.36
2023-03-05T01:18:17.308Z,1.22
2023-03-05T01:20:44.155Z,1.01
2023-03-05T01:23:11.120Z,0.90
2023-03-05T01:25:38.614Z,0.89
2023-03-05T01:28:05.987Z,0.88
2023-03-05T01:30:33.590Z,0.92
2023-03-05T01:33:00.563Z,0.87
2023-03-05T01:35:28.952Z,0.74
2023-03-05T01:37:56.670Z,0.77
2023-03-05T01:40:31.795Z,0.84
2023-03-05T01:43:12.956Z,0.99
2023-03-05T01:46:34.973Z,1.06
2023-03-05T01:49:15.237Z,0.96
2023-03-05T01:52:03.273Z,0.91
2023-03-05T01:54:41.576Z,0.94
2023-03-05T01:57:16.778Z,0.97
2023-03-05T01:59:48.819Z,1.01
2023-03-05T02:02:16.960Z,1.07
2023-03-05T02:05:09.693Z,1.10
2023-03-05T02:07:37.998Z,1.08
2023-03-05T02:10:20.315Z,1.12
2023-03-05T02:12:49.152Z,1.05
2023-03-05T02:15:37.839Z,1.03
2023-03-05T02:18:07.262Z,1.05
2023-03-05T02:20:47.138Z,1.14
2023-03-05T02:23:15.268Z,1.17
2023-03-05T02:25:42.271Z,1.10
2023-03-05T02:28:23.001Z,1.09
2023-03-05T02:30:50.526Z,1.11
2023-03-05T02:33:19.338Z,1.10
2023-03-05T02:35:46.499Z,1.07
2023-03-05T02:38:16.901Z,1.07
2023-03-05T02:40:44.175Z,1.10
2023-03-05T02:43:12.329Z,1.08
2023-03-05T02:45:39.633Z,1.03
2023-03-05T02:48:06.913Z,0.98
2023-03-05T02:50:34.784Z,0.96
2023-03-05T02:53:01.784Z,0.93
2023-03-05T02:55:29.647Z,0.93
2023-03-05T02:57:56.591Z,0.89
2023-03-05T03:00:23.826Z,0.90
2023-03-05T03:02:51.103Z,0.93
2023-03-05T03:05:18.247Z,0.88
2023-03-05T03:07:45.197Z,0.90
2023-03-05T03:10:12.486Z,0.88
2023-03-05T03:12:42.315Z,0.89
2023-03-05T03:15:12.340Z,0.93
2023-03-05T03:17:39.703Z,0.89
2023-03-05T03:20:10.257Z,0.89
2023-03-05T03:22:37.416Z,0.85
2023-03-05T03:25:05.560Z,0.90
2023-03-05T03:27:32.454Z,0.93
2023-03-05T03:30:02.698Z,0.97
2023-03-05T03:32:32.606Z,1.00
2023-03-05T03:35:00.383Z,0.98
2023-03-05T03:37:27.590Z,0.96
2023-03-05T03:39:54.505Z,0.94
2023-03-05T03:42:23.004Z,0.97
2023-03-05T03:44:51.171Z,0.96
2023-03-05T03:47:18.531Z,0.96
2023-03-05T03:49:45.459Z,0.96
2023-03-05T03:52:12.360Z,0.96
2023-03-05T03:54:39.332Z,1.04
2023-03-05T03:57:06.488Z,1.06
2023-03-05T03:59:33.438Z,1.06
2023-03-05T04:02:00.370Z,1.05
2023-03-05T04:04:29.226Z,1.02
2023-03-05T04:06:57.092Z,1.06
2023-03-05T04:09:24.084Z,1.08
2023-03-05T04:11:51.075Z,1.08
2023-03-05T04:14:18.193Z,1.03
2023-03-05T04:16:45.061Z,1.11
2023-03-05T04:19:12.188Z,1.13
2023-03-05T04:21:40.151Z,1.16
2023-03-05T04:24:08.315Z,1.11
2023-03-05T04:26:35.762Z,1.17
2023-03-05T04:29:02.746Z,1.20
2023-03-05T04:31:29.871Z,1.14
2023-03-05T04:33:56.867Z,1.12
2023-03-05T04:36:23.984Z,0.97
2023-03-05T04:38:50.969Z,0.97
2023-03-05T04:41:17.936Z,0.97
2023-03-05T04:43:44.850Z,0.94
2023-03-05T04:46:11.786Z,0.99
2023-03-05T04:48:38.867Z,0.96
2023-03-05T04:51:05.864Z,0.90
2023-03-05T04:53:33.257Z,0.95
2023-03-05T04:56:01.612Z,0.98
2023-03-05T04:58:29.324Z,0.99
2023-03-05T05:01:02.517Z,0.98
2023-03-05T05:03:29.914Z,1.01
2023-03-05T05:05:59.365Z,1.03
2023-03-05T05:08:28.009Z,1.03
2023-03-05T05:11:03.041Z,1.07
2023-03-05T05:13:30.920Z,1.08
2023-03-05T05:15:58.761Z,1.06
2023-03-05T05:18:26.237Z,0.98
2023-03-05T05:20:53.457Z,1.02
2023-03-05T05:23:20.473Z,1.00
2023-03-05T05:26:00.178Z,0.98
2023-03-05T05:28:28.005Z,1.03
2023-03-05T05:30:55.580Z,0.95
2023-03-05T05:33:23.782Z,1.01
2023-03-05T05:35:51.267Z,1.04
2023-03-05T05:38:18.568Z,0.98
2023-03-05T05:40:45.519Z,0.97
2023-03-05T05:43:12.438Z,0.97
2023-03-05T05:45:39.444Z,0.96
2023-03-05T05:48:07.066Z,0.94
2023-03-05T05:50:33.959Z,1.02
2023-03-05T05:53:00.919Z,1.10
2023-03-05T05:55:27.902Z,1.12
2023-03-05T05:57:54.934Z,1.10
2023-03-05T06:00:22.522Z,1.07
2023-03-05T06:02:49.634Z,1.08
2023-03-05T06:05:16.750Z,1.08
2023-03-05T06:07:44.553Z,1.10
2023-03-05T06:10:11.868Z,1.10
2023-03-05T06:12:39.701Z,1.04
2023-03-05T06:15:07.462Z,1.03
2023-03-05T06:17:34.705Z,1.14
2023-03-05T06:20:01.757Z,1.14
2023-03-05T06:22:30.505Z,1.12
2023-03-05T06:24:57.425Z,1.15
2023-03-05T06:27:24.376Z,1.18
2023-03-05T06:29:56.493Z,1.14
2023-03-05T06:32:23.946Z,1.16
2023-03-05T06:34:51.457Z,1.20
2023-03-05T06:37:18.586Z,1.24
2023-03-05T06:39:45.611Z,1.26
2023-03-05T06:42:12.525Z,1.21
2023-03-05T06:44:40.926Z,1.24
2023-03-05T06:47:10.548Z,1.21
2023-03-05T06:49:39.033Z,1.27
2023-03-05T06:52:07.074Z,1.28
2023-03-05T06:54:34.381Z,1.23
2023-03-05T06:57:01.453Z,1.12
2023-03-05T06:59:28.364Z,0.96
2023-03-05T07:01:55.354Z,1.01
2023-03-05T07:04:24.158Z,1.05
2023-03-05T07:06:51.273Z,1.11
2023-03-05T07:09:18.212Z,1.15
2023-03-05T07:11:45.155Z,1.25
2023-03-05T07:14:12.203Z,1.23
2023-03-05T07:16:39.212Z,1.32
2023-03-05T07:19:07.546Z,1.33
2023-03-05T07:21:37.523Z,1.30
2023-03-05T07:24:07.720Z,1.31
2023-03-05T07:26:35.091Z,1.28
2023-03-05T07:29:02.941Z,1.30
2023-03-05T07:31:33.240Z,1.31
2023-03-05T07:34:02.049Z,1.31
2023-03-05T07:36:29.963Z,1.36
2023-03-05T07:38:56.974Z,1.48
2023-03-05T07:41:23.920Z,1.48
2023-03-05T07:43:53.611Z,1.58
2023-03-05T07:46:24.808Z,1.72
2023-03-05T07:48:54.504Z,1.77
2023-03-05T07:51:22.751Z,1.83
2023-03-05T07:53:52.981Z,1.88
2023-03-05T07:56:32.260Z,1.88
2023-03-05T07:59:00.864Z,1.90
2023-03-05T08:01:29.587Z,1.80
2023-03-05T08:03:56.655Z,1.36
2023-03-05T08:06:23.708Z,1.06
2023-03-05T08:08:50.833Z,0.91
2023-03-05T08:11:18.032Z,1.02
2023-03-05T08:13:45.562Z,1.10
2023-03-05T08:16:21.065Z,1.25
2023-03-05T08:18:48.709Z,1.39
2023-03-05T08:21:18.837Z,1.43
2023-03-05T08:23:45.853Z,1.49
2023-03-05T08:26:16.109Z,1.64
2023-03-05T08:28:44.101Z,1.71
2023-03-05T08:31:13.551Z,1.61
2023-03-05T08:33:41.200Z,1.38
2023-03-05T08:36:09.882Z,1.32
2023-03-05T08:38:37.145Z,1.34
2023-03-05T08:41:05.522Z,1.48
2023-03-05T08:43:33.206Z,1.54
2023-03-05T08:46:01.550Z,1.64
2023-03-05T08:48:29.963Z,1.71
2023-03-05T08:50:56.882Z,1.92
2023-03-05T08:53:24.255Z,2.04
2023-03-05T08:55:56.565Z,2.07
2023-03-05T08:58:24.436Z,2.04
2023-03-05T09:00:52.019Z,2.08
2023-03-05T09:03:19.555Z,2.12
2023-03-05T09:05:46.664Z,2.08
2023-03-05T09:08:13.918Z,2.09
2023-03-05T09:10:45.943Z,2.16
2023-03-05T09:13:13.200Z,2.24
2023-03-05T09:15:40.063Z,2.41
2023-03-05T09:18:09.001Z,2.50
2023-03-05T09:20:37.205Z,2.60
2023-03-05T09:23:04.188Z,2.64
2023-03-05T09:25:31.135Z,2.73
2023-03-05T09:27:58.067Z,2.91
2023-03-05T09:30:25.022Z,2.92
2023-03-05T09:32:51.954Z,2.88
2023-03-05T09:35:19.086Z,2.86
2023-03-05T09:37:46.206Z,2.82
2023-03-05T09:40:18.130Z,2.90
2023-03-05T09:43:08.613Z,3.07
2023-03-05T09:45:44.345Z,3.30
2023-03-05T09:48:58.336Z,3.50
2023-03-05T09:51:31.440Z,3.40
2023-03-05T09:54:12.437Z,3.27
2023-03-05T09:56:48.715Z,3.26
2023-03-05T09:59:48.646Z,3.11
2023-03-05T10:02:32.267Z,3.30
2023-03-05T10:05:11.031Z,3.23
2023-03-05T10:07:43.391Z,3.24
2023-03-05T10:10:16.974Z,3.34
2023-03-05T10:12:53.780Z,3.45
2023-03-05T10:15:58.979Z,3.26
2023-03-05T10:19:25.856Z,3.34
2023-03-05T10:22:37.279Z,3.22
2023-03-05T10:25:17.970Z,3.03
2023-03-05T10:28:05.833Z,3.10
2023-03-05T10:31:09.709Z,3.29
2023-03-05T10:33:54.432Z,3.20
2023-03-05T10:36:58.233Z,3.36
2023-03-05T10:40:07.027Z,3.49
2023-03-05T10:42:56.485Z,3.22
2023-03-05T10:45:35.761Z,3.27
2023-03-05T10:48:27.807Z,3.57
2023-03-05T10:51:05.540Z,3.64
2023-03-05T10:53:45.401Z,3.82
2023-03-05T10:56:12.493Z,4.06
2023-03-05T10:58:39.394Z,4.13
2023-03-05T11:01:12.784Z,3.65
2023-03-05T11:03:59.993Z,3.32
2023-03-05T11:06:32.624Z,3.13
2023-03-05T11:09:32.522Z,2.90
2023-03-05T11:12:08.725Z,2.81
2023-03-05T11:14:39.819Z,2.91
2023-03-05T11:17:47.867Z,2.74
2023-03-05T11:20:26.921Z,2.67
2023-03-05T11:23:17.891Z,2.56
2023-03-05T11:25:58.656Z,2.52
2023-03-05T11:28:41.597Z,2.50
2023-03-05T11:31:32.018Z,2.23
2023-03-05T11:34:30.251Z,1.94
2023-03-05T11:36:57.022Z,1.89
2023-03-05T11:39:30.321Z,1.79
2023-03-05T11:42:25.168Z,1.84
2023-03-05T11:44:55.947Z,1.90
2023-03-05T11:47:32.041Z,1.89
2023-03-05T11:50:24.771Z,2.15
2023-03-05T11:52:58.545Z,2.22
2023-03-05T11:55:46.320Z,2.34
2023-03-05T11:58:22.740Z,2.37
2023-03-05T12:00:49.727Z,2.51
2023-03-05T12:03:26.447Z,2.53
2023-03-05T12:06:17.739Z,2.51
2023-03-05T12:08:49.977Z,2.47
2023-03-05T12:11:32.360Z,2.67
2023-03-05T12:14:20.020Z,2.86
2023-03-05T12:16:51.851Z,3.01
2023-03-05T12:19:35.709Z,3.05
2023-03-05T12:22:04.164Z,2.70
2023-03-05T12:24:30.966Z,2.72
2023-03-05T12:27:10.380Z,2.76
2023-03-05T12:29:53.143Z,2.89
2023-03-05T12:32:23.074Z,3.07
2023-03-05T12:35:19.316Z,3.39
2023-03-05T12:37:52.286Z,3.53
2023-03-05T12:40:34.613Z,3.51
2023-03-05T12:43:06.100Z,3.58
2023-03-05T12:45:42.221Z,3.78
2023-03-05T12:48:12.119Z,3.98
2023-03-05T12:50:38.954Z,4.13
2023-03-05T12:53:20.323Z,4.02
2023-03-05T12:55:58.553Z,4.01
2023-03-05T12:58:49.843Z,4.03
2023-03-05T13:01:45.846Z,4.14
2023-03-05T13:04:26.951Z,4.22
2023-03-05T13:07:13.453Z,4.44
2023-03-05T13:09:40.572Z,4.59
2023-03-05T13:12:14.114Z,4.66
2023-03-05T13:14:48.967Z,4.54
2023-03-05T13:17:44.419Z,4.67
2023-03-05T13:20:42.728Z,4.66
2023-03-05T13:23:23.994Z,4.75
2023-03-05T13:26:20.519Z,4.81
2023-03-05T13:29:14.713Z,4.85
2023-03-05T13:31:57.248Z,5.03
2023-03-05T13:34:46.247Z,5.15
2023-03-05T13:37:29.388Z,5.22
2023-03-05T13:40:14.737Z,5.06
2023-03-05T13:42:41.741Z,4.83
2023-03-05T13:45:26.756Z,4.91
2023-03-05T13:48:03.909Z,4.89
2023-03-05T13:50:37.913Z,5.12
2023-03-05T13:53:29.416Z,5.25
2023-03-05T13:56:00.594Z,5.39
2023-03-05T13:58:54.121Z,5.29
2023-03-05T14:01:33.230Z,5.28
2023-03-05T14:04:15.672Z,5.27
2023-03-05T14:06:55.824Z,5.24
2023-03-05T14:09:30.049Z,5.21
2023-03-05T14:12:07.360Z,5.09
2023-03-05T14:14:38.478Z,5.24
2023-03-05T14:17:30.107Z,5.27
2023-03-05T14:20:24.908Z,5.05
2023-03-05T14:22:57.950Z,4.78
2023-03-05T14:25:39.544Z,4.63
2023-03-05T14:28:26.858Z,4.84
2023-03-05T14:30:56.810Z,4.75
2023-03-05T14:33:32.516Z,4.89
2023-03-05T14:36:02.114Z,5.11
2023-03-05T14:38:34.099Z,5.19
2023-03-05T14:41:40.923Z,5.14
2023-03-05T14:44:18.740Z,5.06
2023-03-05T14:46:49.947Z,4.89
2023-03-05T14:49:17.607Z,4.98
2023-03-05T14:51:46.180Z,5.06
2023-03-05T14:54:26.243Z,5.04
2023-03-05T14:56:53.532Z,4.89
2023-03-05T14:59:23.638Z,4.98
2023-03-05T15:01:50.936Z,4.92
2023-03-05T15:04:19.782Z,4.78
2023-03-05T15:06:50.836Z,4.69
2023-03-05T15:09:20.947Z,4.71
2023-03-05T15:11:48.758Z,4.63
2023-03-05T15:14:15.722Z,4.51
2023-03-05T15:16:45.543Z,4.58
2023-03-05T15:19:13.376Z,4.53
2023-03-05T15:21:41.054Z,4.46
2023-03-05T15:24:10.186Z,4.34
2023-03-05T15:26:37.879Z,4.36
2023-03-05T15:29:05.073Z,4.41
2023-03-05T15:31:38.401Z,4.46
2023-03-05T15:34:06.078Z,4.55
2023-03-05T15:36:33.831Z,4.40
2023-03-05T15:39:01.293Z,4.31
2023-03-05T15:41:28.509Z,4.27
2023-03-05T15:43:55.435Z,4.20
2023-03-05T15:46:22.437Z,4.11
2023-03-05T15:48:50.251Z,4.11
2023-03-05T15:51:18.122Z,4.01
2023-03-05T15:53:46.377Z,3.99
2023-03-05T15:56:18.427Z,4.04
2023-03-05T15:58:45.598Z,4.08
2023-03-05T16:01:12.828Z,4.13
2023-03-05T16:03:39.951Z,4.09
2023-03-05T16:06:08.938Z,3.95
2023-03-05T16:08:36.895Z,3.96
2023-03-05T16:11:04.583Z,3.89
2023-03-05T16:13:32.572Z,3.82
2023-03-05T16:16:00.548Z,3.80
2023-03-05T16:18:29.885Z,3.76
2023-03-05T16:20:57.150Z,3.75
2023-03-05T16:23:24.096Z,3.66
2023-03-05T16:25:50.995Z,3.61
2023-03-05T16:28:17.955Z,3.61
2023-03-05T16:30:51.951Z,3.54
2023-03-05T16:33:18.902Z,3.62
2023-03-05T16:35:46.459Z,3.62
2023-03-05T16:38:14.026Z,3.64
2023-03-05T16:41:09.215Z,3.55
2023-03-05T16:43:28.531Z,3.55
2023-03-05T16:45:55.548Z,3.53
2023-03-05T16:48:22.646Z,3.47
2023-03-05T16:50:49.599Z,3.48
2023-03-05T16:53:16.763Z,3.42
2023-03-05T16:55:43.707Z,3.39
2023-03-05T16:58:10.618Z,3.37
2023-03-05T17:00:37.626Z,3.42
2023-03-05T17:03:04.794Z,3.36
2023-03-05T17:05:31.997Z,3.36
2023-03-05T17:08:02.036Z,3.28
2023-03-05T17:10:29.104Z,3.24
2023-03-05T17:12:56.842Z,3.23
2023-03-05T17:15:24.207Z,3.27
2023-03-05T17:17:51.283Z,3.23
2023-03-05T17:20:20.087Z,3.22
2023-03-05T17:22:47.265Z,3.14
2023-03-05T17:25:14.406Z,3.17
2023-03-05T17:27:41.391Z,3.20
2023-03-05T17:30:09.327Z,3.14
2023-03-05T17:32:36.686Z,3.13
2023-03-05T17:35:05.491Z,3.13
2023-03-05T17:37:32.930Z,3.18
2023-03-05T17:40:00.323Z,3.17
2023-03-05T17:42:27.287Z,3.23
2023-03-05T17:44:54.174Z,3.15
2023-03-05T17:47:22.507Z,3.11
2023-03-05T17:49:50.245Z,3.03
2023-03-05T17:52:18.186Z,3.08
2023-03-05T17:54:45.297Z,3.09
2023-03-05T17:57:12.226Z,3.04
2023-03-05T17:59:39.242Z,3.03
2023-03-05T18:02:06.968Z,3.05
2023-03-05T18:04:34.546Z,3.03
2023-03-05T18:07:01.826Z,2.99
2023-03-05T18:09:28.799Z,3.00
2023-03-05T18:11:56.236Z,3.06
2023-03-05T18:14:23.250Z,3.04
2023-03-05T18:16:50.393Z,2.98
2023-03-05T18:19:18.647Z,3.05
2023-03-05T18:21:45.887Z,3.06
2023-03-05T18:24:14.107Z,3.08
2023-03-05T18:26:41.102Z,3.14
2023-03-05T18:29:07.993Z,2.97
2023-03-05T18:31:34.948Z,2.95
2023-03-05T18:34:01.855Z,2.89
2023-03-05T18:36:28.742Z,2.80
2023-03-05T18:38:55.654Z,2.87
2023-03-05T18:41:27.987Z,2.81
2023-03-05T18:43:55.386Z,2.81
2023-03-05T18:46:22.481Z,2.85
2023-03-05T18:48:50.104Z,2.79
2023-03-05T18:51:20.176Z,2.87
2023-03-05T18:53:47.523Z,2.94
2023-03-05T18:56:14.711Z,3.01
2023-03-05T18:58:41.634Z,2.99
2023-03-05T19:01:09.295Z,2.93
2023-03-05T19:03:36.336Z,2.84
2023-03-05T19:06:07.206Z,2.85
2023-03-05T19:08:34.611Z,2.86
2023-03-05T19:11:01.611Z,2.89
2023-03-05T19:13:40.239Z,2.88
2023-03-05T19:16:13.547Z,2.87
2023-03-05T19:18:53.975Z,2.89
2023-03-05T19:21:20.980Z,2.87
2023-03-05T19:23:47.840Z,2.84
2023-03-05T19:26:14.779Z,2.86
2023-03-05T19:28:41.701Z,2.81
2023-03-05T19:31:08.700Z,2.81
2023-03-05T19:33:35.608Z,2.82
2023-03-05T19:36:02.567Z,2.82
2023-03-05T19:38:29.460Z,2.74
2023-03-05T19:40:56.404Z,2.73
2023-03-05T19:43:23.333Z,2.83
2023-03-05T19:45:50.296Z,2.76
2023-03-05T19:48:17.433Z,2.69
2023-03-05T19:50:44.398Z,2.62
2023-03-05T19:53:11.256Z,2.65
2023-03-05T19:55:41.003Z,2.65
2023-03-05T19:58:08.141Z,2.57
2023-03-05T20:00:35.065Z,2.56
2023-03-05T20:03:01.957Z,2.58
2023-03-05T20:05:28.886Z,2.60
2023-03-05T20:07:56.101Z,2.51
2023-03-05T20:10:23.176Z,2.52
2023-03-05T20:12:50.980Z,2.51
2023-03-05T20:15:19.043Z,2.47
2023-03-05T20:17:45.929Z,2.51
2023-03-05T20:20:18.034Z,2.48
2023-03-05T20:22:47.284Z,2.50
2023-03-05T20:25:16.912Z,2.47
2023-03-05T20:27:44.447Z,2.45
2023-03-05T20:30:15.447Z,2.41
2023-03-05T20:32:42.396Z,2.46
2023-03-05T20:35:15.941Z,2.46
2023-03-05T20:37:50.112Z,2.37
2023-03-05T20:40:17.934Z,2.40
2023-03-05T20:42:44.844Z,2.38
2023-03-05T20:45:12.263Z,2.30
2023-03-05T20:47:44.971Z,2.31
2023-03-05T20:50:17.010Z,2.24
2023-03-05T20:52:44.038Z,2.26
2023-03-05T20:55:12.446Z,2.20
2023-03-05T20:57:39.677Z,2.06
2023-03-05T21:00:07.788Z,1.99
2023-03-05T21:02:34.857Z,1.92
2023-03-05T21:05:01.880Z,1.83
2023-03-05T21:07:30.807Z,1.85
2023-03-05T21:09:57.727Z,1.91
2023-03-05T21:12:24.662Z,1.87
2023-03-05T21:14:51.524Z,1.87
2023-03-05T21:17:18.496Z,1.85
2023-03-05T21:19:45.414Z,1.80
2023-03-05T21:22:12.364Z,1.92
2023-03-05T21:25:03.351Z,1.87
2023-03-05T21:27:30.405Z,1.80
2023-03-05T21:29:57.315Z,1.94
2023-03-05T21:32:24.289Z,1.93
2023-03-05T21:34:51.162Z,1.94
2023-03-05T21:37:18.051Z,2.05
2023-03-05T21:39:44.973Z,2.01
2023-03-05T21:42:12.981Z,2.01
2023-03-05T21:44:40.002Z,2.00
2023-03-05T21:47:07.002Z,1.93
2023-03-05T21:49:34.131Z,1.87
2023-03-05T21:52:09.072Z,1.92
2023-03-05T21:54:41.866Z,1.94
2023-03-05T21:57:11.124Z,1.94
2023-03-05T21:59:41.911Z,1.91
2023-03-05T22:02:14.185Z,1.92
2023-03-05T22:04:41.177Z,1.93
2023-03-05T22:07:08.068Z,1.98
2023-03-05T22:09:35.428Z,1.89
2023-03-05T22:12:04.708Z,1.84
2023-03-05T22:14:31.613Z,1.94
2023-03-05T22:17:03.221Z,1.89
2023-03-05T22:19:30.268Z,1.89
2023-03-05T22:21:57.632Z,1.86
2023-03-05T22:24:27.584Z,1.75
2023-03-05T22:26:54.538Z,1.71
2023-03-05T22:29:21.357Z,1.82
2023-03-05T22:31:48.243Z,1.76
2023-03-05T22:34:15.090Z,1.85
2023-03-05T22:36:41.999Z,1.89
2023-03-05T22:39:08.938Z,1.90
2023-03-05T22:41:35.800Z,1.93
2023-03-05T22:44:02.705Z,1.86
2023-03-05T22:46:29.739Z,1.88
2023-03-05T22:48:56.796Z,1.90
2023-03-05T22:51:23.995Z,1.94
2023-03-05T22:53:51.085Z,1.87
2023-03-05T22:56:20.332Z,1.83
2023-03-05T22:58:47.370Z,1.77
2023-03-05T23:01:21.845Z,1.68
2023-03-05T23:03:54.888Z,1.67
2023-03-05T23:06:25.423Z,1.68
2023-03-05T23:08:52.343Z,1.62
2023-03-05T23:11:19.285Z,1.55
2023-03-05T23:13:46.204Z,1.59
2023-03-05T23:16:13.206Z,1.62
2023-03-05T23:18:40.234Z,1.68
2023-03-05T23:21:07.205Z,1.70
2023-03-05T23:23:34.205Z,1.83
2023-03-05T23:26:01.810Z,1.81
2023-03-05T23:28:28.810Z,1.75
2023-03-05T23:30:58.169Z,1.74
2023-03-05T23:33:25.237Z,1.71
2023-03-05T23:35:57.892Z,1.71
2023-03-05T23:38:27.973Z,1.75
2023-03-05T23:40:58.532Z,1.65
2023-03-05T23:43:27.634Z,1.58
2023-03-05T23:45:55.080Z,1.73
2023-03-05T23:48:27.205Z,1.77
2023-03-05T23:50:54.785Z,1.75
2023-03-05T23:53:29.157Z,1.78
2023-03-05T23:55:57.366Z,1.81
2023-03-05T23:58:24.512Z,1.71
